Time,TemperatureF,DewpointF,PressureIn,WindDirection,WindDirectionDegrees,WindSpeedMPH,WindSpeedGustMPH,Humidity,HourlyPrecipIn,Conditions,Clouds,dailyrainin,SoftwareType,DateUTC
2013-03-01 00:00:00,32.5,31.7,29.71,WNW,288,1.0,2.0,97,0.00,,,0.45,Wunderground v.1.15,2013-03-01 05:00:00,
2013-03-01 00:05:00,32.5,31.7,29.72,WNW,288,1.0,2.0,97,0.00,,,0.00,Wunderground v.1.15,2013-03-01 05:05:00,
2013-03-01 00:10:00,32.5,31.7,29.72,WNW,288,1.0,1.0,97,0.00,,,0.00,Wunderground v.1.15,2013-03-01 05:10:00,
2013-03-01 00:20:00,32.5,31.7,29.72,WNW,288,1.0,1.0,97,0.00,,,0.00,Wunderground v.1.15,2013-03-01 05:20:00,
2013-03-01 00:25:00,32.5,31.7,29.72,WNW,288,1.0,1.0,97,0.00,,,0.00,Wunderground v.1.15,2013-03-01 05:25:00,
2013-03-01 00:35:00,32.5,31.7,29.72,WNW,288,1.0,1.0,97,0.00,,,0.00,Wunderground v.1.15,2013-03-01 05:35:00,
2013-03-01 00:40:00,32.5,31.7,29.72,WNW,288,1.0,1.0,97,0.00,,,0.01,Wunderground v.1.15,2013-03-01 05:40:00,
2013-03-01 00:50:00,32.5,31.7,29.72,WNW,290,2.0,3.0,97,0.00,,,0.01,Wunderground v.1.15,2013-03-01 05:50:00,
2013-03-01 01:00:00,32.5,31.7,29.72,WNW,290,1.0,1.0,97,0.00,,,0.01,Wunderground v.1.15,2013-03-01 06:00:00,
2013-03-01 01:05:00,32.5,31.7,29.73,WNW,296,2.0,2.0,97,0.00,,,0.01,Wunderground v.1.15,2013-03-01 06:05:00,
2013-03-01 01:10:00,32.5,31.7,29.73,WNW,300,2.0,2.0,97,0.00,,,0.01,Wunderground v.1.15,2013-03-01 06:10:00,
2013-03-01 01:20:00,32.5,31.7,29.73,WNW,302,2.0,3.0,97,0.00,,,0.01,Wunderground v.1.15,2013-03-01 06:20:00,
2013-03-01 01:30:00,32.5,31.7,29.73,NW,307,1.0,3.0,97,0.00,,,0.01,Wunderground v.1.15,2013-03-01 06:30:00,
2013-03-01 01:40:00,32.4,31.6,29.73,NW,307,1.0,1.0,97,0.00,,,0.01,Wunderground v.1.15,2013-03-01 06:40:00,
2013-03-01 01:45:00,32.4,31.6,29.73,NW,307,1.0,1.0,97,0.00,,,0.01,Wunderground v.1.15,2013-03-01 06:45:00,
2013-03-01 01:50:00,32.3,31.5,29.74,NW,306,2.0,2.0,97,0.00,,,0.01,Wunderground v.1.15,2013-03-01 06:50:00,
2013-03-01 02:00:00,32.2,31.4,29.74,NW,309,2.0,3.0,97,0.00,,,0.01,Wunderground v.1.15,2013-03-01 07:00:00,
2013-03-01 02:10:00,32.1,31.3,29.74,NW,313,3.0,3.0,97,0.00,,,0.01,Wunderground v.1.15,2013-03-01 07:10:00,
2013-03-01 02:20:00,32.0,31.2,29.74,NW,317,2.0,2.0,97,0.00,,,0.01,Wunderground v.1.15,2013-03-01 07:20:00,
2013-03-01 02:30:00,32.0,31.0,29.74,NW,317,1.0,2.0,96,0.00,,,0.01,Wunderground v.1.15,2013-03-01 07:30:00,
2013-03-01 02:35:00,32.0,31.0,29.74,NW,320,1.0,2.0,96,0.00,,,0.01,Wunderground v.1.15,2013-03-01 07:35:00,
2013-03-01 02:45:00,31.9,30.9,29.74,NW,322,2.0,2.0,96,0.00,,,0.01,Wunderground v.1.15,2013-03-01 07:45:00,
2013-03-01 02:55:00,31.9,30.9,29.74,NW,325,2.0,2.0,96,0.00,,,0.01,Wunderground v.1.15,2013-03-01 07:55:00,
2013-03-01 03:05:00,31.8,30.8,29.74,North,355,2.0,2.0,96,0.00,,,0.01,Wunderground v.1.15,2013-03-01 08:05:00,
2013-03-01 03:10:00,31.7,30.7,29.74,North,350,2.0,2.0,96,0.00,,,0.01,Wunderground v.1.15,2013-03-01 08:10:00,
2013-03-01 03:20:00,31.7,30.4,29.75,North,351,1.0,1.0,95,0.00,,,0.01,Wunderground v.1.15,2013-03-01 08:20:00,
2013-03-01 03:30:00,31.6,30.3,29.75,North,351,2.0,4.0,95,0.00,,,0.01,Wunderground v.1.15,2013-03-01 08:30:00,
2013-03-01 03:40:00,31.5,30.2,29.75,North,350,2.0,2.0,95,0.00,,,0.01,Wunderground v.1.15,2013-03-01 08:40:00,
2013-03-01 03:50:00,31.5,30.2,29.76,North,349,2.0,3.0,95,0.00,,,0.01,Wunderground v.1.15,2013-03-01 08:50:00,
2013-03-01 04:00:00,31.4,30.1,29.76,NNW,339,3.0,7.0,95,0.00,,,0.01,Wunderground v.1.15,2013-03-01 09:00:00,
2013-03-01 04:10:00,31.3,30.0,29.76,NNW,336,2.0,2.0,95,0.00,,,0.01,Wunderground v.1.15,2013-03-01 09:10:00,
2013-03-01 04:20:00,31.3,29.8,29.77,NNW,334,2.0,2.0,94,0.00,,,0.01,Wunderground v.1.15,2013-03-01 09:20:00,
2013-03-01 04:25:00,31.4,30.1,29.77,NNW,335,2.0,2.0,95,0.00,,,0.01,Wunderground v.1.15,2013-03-01 09:25:00,
2013-03-01 04:35:00,31.4,29.9,29.77,NNW,335,2.0,5.0,94,0.00,,,0.01,Wunderground v.1.15,2013-03-01 09:35:00,
2013-03-01 04:40:00,31.4,29.9,29.77,NNW,335,3.0,3.0,94,0.00,,,0.01,Wunderground v.1.15,2013-03-01 09:40:00,
2013-03-01 04:45:00,31.4,29.9,29.77,NW,318,4.0,7.0,94,0.00,,,0.01,Wunderground v.1.15,2013-03-01 09:45:00,
2013-03-01 04:55:00,31.3,29.8,29.78,WNW,303,4.0,4.0,94,0.00,,,0.01,Wunderground v.1.15,2013-03-01 09:55:00,
2013-03-01 05:05:00,31.3,29.8,29.78,WNW,303,2.0,3.0,94,0.00,,,0.01,Wunderground v.1.15,2013-03-01 10:05:00,
2013-03-01 05:15:00,31.3,29.8,29.79,WNW,303,2.0,2.0,94,0.00,,,0.01,Wunderground v.1.15,2013-03-01 10:15:00,
2013-03-01 05:20:00,31.2,29.7,29.79,WNW,303,1.0,1.0,94,0.00,,,0.01,Wunderground v.1.15,2013-03-01 10:20:00,
2013-03-01 05:30:00,31.2,29.7,29.79,WNW,303,1.0,1.0,94,0.00,,,0.01,Wunderground v.1.15,2013-03-01 10:30:00,
2013-03-01 05:35:00,31.2,29.7,29.79,WNW,303,1.0,2.0,94,0.00,,,0.01,Wunderground v.1.15,2013-03-01 10:35:00,
2013-03-01 05:40:00,31.2,29.7,29.79,WNW,300,3.0,3.0,94,0.00,,,0.01,Wunderground v.1.15,2013-03-01 10:40:00,
2013-03-01 05:50:00,31.0,29.5,29.79,NW,308,3.0,4.0,94,0.00,,,0.01,Wunderground v.1.15,2013-03-01 10:50:00,
2013-03-01 05:55:00,30.9,29.4,29.79,NW,304,3.0,4.0,94,0.00,,,0.01,Wunderground v.1.15,2013-03-01 10:55:00,
2013-03-01 06:05:00,30.7,29.2,29.79,NW,308,3.0,4.0,94,0.00,,,0.01,Wunderground v.1.15,2013-03-01 11:05:00,
2013-03-01 06:10:00,30.8,29.3,29.80,NW,308,3.0,3.0,94,0.00,,,0.01,Wunderground v.1.15,2013-03-01 11:10:00,
2013-03-01 06:20:00,30.8,29.0,29.80,NW,309,2.0,3.0,93,0.00,,,0.01,Wunderground v.1.15,2013-03-01 11:20:00,
2013-03-01 06:25:00,30.7,28.9,29.80,NW,310,2.0,3.0,93,0.00,,,0.01,Wunderground v.1.15,2013-03-01 11:25:00,
2013-03-01 06:30:00,30.7,28.9,29.80,NW,313,2.0,4.0,93,0.00,,,0.01,Wunderground v.1.15,2013-03-01 11:30:00,
2013-03-01 06:40:00,30.7,28.9,29.81,NNW,330,2.0,2.0,93,0.00,,,0.01,Wunderground v.1.15,2013-03-01 11:40:00,
2013-03-01 06:50:00,30.7,28.9,29.81,NNW,329,2.0,3.0,93,0.00,,,0.01,Wunderground v.1.15,2013-03-01 11:50:00,
2013-03-01 06:55:00,30.7,28.9,29.81,NNW,329,2.0,3.0,93,0.00,,,0.01,Wunderground v.1.15,2013-03-01 11:55:00,
2013-03-01 07:05:00,30.6,28.8,29.81,NNW,329,2.0,3.0,93,0.00,,,0.01,Wunderground v.1.15,2013-03-01 12:05:00,
2013-03-01 07:10:00,30.6,28.8,29.81,NNW,329,2.0,2.0,93,0.00,,,0.01,Wunderground v.1.15,2013-03-01 12:10:00,
2013-03-01 07:20:00,30.3,28.5,29.82,NNW,330,2.0,6.0,93,0.00,,,0.01,Wunderground v.1.15,2013-03-01 12:20:00,
2013-03-01 07:25:00,30.3,28.5,29.82,NNW,333,3.0,6.0,93,0.00,,,0.01,Wunderground v.1.15,2013-03-01 12:25:00,
2013-03-01 07:30:00,30.2,28.4,29.83,NW,321,3.0,8.0,93,0.00,,,0.01,Wunderground v.1.15,2013-03-01 12:30:00,
2013-03-01 07:40:00,30.1,28.3,29.83,NW,321,3.0,3.0,93,0.00,,,0.01,Wunderground v.1.15,2013-03-01 12:40:00,
2013-03-01 07:50:00,30.0,28.2,29.83,NW,321,3.0,4.0,93,0.00,,,0.01,Wunderground v.1.15,2013-03-01 12:50:00,
2013-03-01 08:00:00,30.0,28.5,29.84,NW,319,3.0,3.0,94,0.00,,,0.01,Wunderground v.1.15,2013-03-01 13:00:00,
2013-03-01 08:10:00,30.0,28.5,29.84,NW,323,2.0,2.0,94,0.00,,,0.01,Wunderground v.1.15,2013-03-01 13:10:00,
2013-03-01 08:20:00,30.0,28.5,29.84,NW,323,2.0,2.0,94,0.00,,,0.01,Wunderground v.1.15,2013-03-01 13:20:00,
2013-03-01 08:25:00,30.0,28.5,29.84,NW,323,2.0,2.0,94,0.00,,,0.01,Wunderground v.1.15,2013-03-01 13:25:00,
2013-03-01 08:35:00,30.0,28.5,29.84,NW,324,2.0,3.0,94,0.00,,,0.01,Wunderground v.1.15,2013-03-01 13:35:00,
2013-03-01 08:40:00,30.0,28.5,29.84,NW,324,1.0,1.0,94,0.00,,,0.01,Wunderground v.1.15,2013-03-01 13:40:00,
2013-03-01 08:50:00,30.1,28.8,29.84,NW,324,1.0,1.0,95,0.00,,,0.01,Wunderground v.1.15,2013-03-01 13:50:00,
2013-03-01 08:55:00,30.1,28.6,29.84,NW,325,2.0,2.0,94,0.00,,,0.01,Wunderground v.1.15,2013-03-01 13:55:00,
2013-03-01 09:05:00,30.1,28.6,29.84,NW,325,1.0,3.0,94,0.00,,,0.01,Wunderground v.1.15,2013-03-01 14:05:00,
2013-03-01 09:10:00,30.2,28.7,29.84,NW,322,1.0,4.0,94,0.00,,,0.01,Wunderground v.1.15,2013-03-01 14:10:00,
2013-03-01 09:15:00,30.2,28.7,29.85,NW,323,1.0,4.0,94,0.00,,,0.01,Wunderground v.1.15,2013-03-01 14:15:00,
2013-03-01 09:25:00,30.3,28.8,29.85,NW,322,2.0,3.0,94,0.00,,,0.01,Wunderground v.1.15,2013-03-01 14:25:00,
2013-03-01 09:35:00,30.3,28.8,29.85,NW,319,3.0,3.0,94,0.00,,,0.01,Wunderground v.1.15,2013-03-01 14:35:00,
2013-03-01 09:45:00,30.4,28.9,29.85,NW,321,2.0,3.0,94,0.00,,,0.01,Wunderground v.1.15,2013-03-01 14:45:00,
2013-03-01 09:55:00,30.4,28.6,29.85,NW,322,2.0,2.0,93,0.00,,,0.01,Wunderground v.1.15,2013-03-01 14:55:00,
2013-03-01 10:05:00,30.4,28.6,29.85,NW,305,5.0,5.0,93,0.00,,,0.01,Wunderground v.1.15,2013-03-01 15:05:00,
2013-03-01 10:10:00,30.4,28.6,29.85,NW,304,4.0,4.0,93,0.00,,,0.01,Wunderground v.1.15,2013-03-01 15:10:00,
2013-03-01 10:15:00,30.4,28.6,29.85,NW,304,4.0,4.0,93,0.00,,,0.01,Wunderground v.1.15,2013-03-01 15:15:00,
2013-03-01 10:25:00,30.6,28.8,29.85,NW,311,3.0,4.0,93,0.00,,,0.01,Wunderground v.1.15,2013-03-01 15:25:00,
2013-03-01 10:30:00,30.6,28.8,29.85,NW,312,3.0,3.0,93,0.00,,,0.01,Wunderground v.1.15,2013-03-01 15:30:00,
2013-03-01 10:40:00,30.4,28.4,29.86,NW,313,3.0,3.0,92,0.00,,,0.01,Wunderground v.1.15,2013-03-01 15:40:00,
2013-03-01 10:50:00,30.4,28.4,29.86,NW,310,3.0,3.0,92,0.00,,,0.01,Wunderground v.1.15,2013-03-01 15:50:00,
2013-03-01 11:00:00,30.4,28.4,29.86,NW,311,2.0,3.0,92,0.00,,,0.01,Wunderground v.1.15,2013-03-01 16:00:00,
2013-03-01 11:05:00,30.4,28.4,29.86,NW,310,2.0,3.0,92,0.00,,,0.01,Wunderground v.1.15,2013-03-01 16:05:00,
2013-03-01 11:15:00,30.4,28.1,29.86,NW,306,4.0,5.0,91,0.00,,,0.01,Wunderground v.1.15,2013-03-01 16:15:00,
2013-03-01 11:25:00,30.3,27.7,29.87,West,278,6.0,6.0,90,0.00,,,0.01,Wunderground v.1.15,2013-03-01 16:25:00,
2013-03-01 11:35:00,30.3,27.4,29.87,WNW,288,7.0,7.0,89,0.00,,,0.01,Wunderground v.1.15,2013-03-01 16:35:00,
2013-03-01 11:45:00,30.8,27.9,29.87,WNW,295,4.0,6.0,89,0.00,,,0.01,Wunderground v.1.15,2013-03-01 16:45:00,
2013-03-01 11:55:00,31.0,27.9,29.87,WNW,300,6.0,6.0,88,0.00,,,0.01,Wunderground v.1.15,2013-03-01 16:55:00,
2013-03-01 12:05:00,31.2,27.8,29.87,WNW,300,5.0,11.0,87,0.00,,,0.01,Wunderground v.1.15,2013-03-01 17:05:00,
2013-03-01 12:15:00,31.3,27.6,29.87,NW,304,6.0,6.0,86,0.00,,,0.02,Wunderground v.1.15,2013-03-01 17:15:00,
2013-03-01 12:20:00,31.4,27.7,29.87,WNW,298,4.0,10.0,86,0.00,,,0.02,Wunderground v.1.15,2013-03-01 17:20:00,
2013-03-01 12:30:00,31.2,27.2,29.87,West,281,6.0,6.0,85,0.00,,,0.02,Wunderground v.1.15,2013-03-01 17:30:00,
2013-03-01 12:35:00,31.0,27.0,29.87,WNW,296,5.0,6.0,85,0.00,,,0.02,Wunderground v.1.15,2013-03-01 17:35:00,
2013-03-01 12:45:00,30.8,26.8,29.87,West,275,5.0,9.0,85,0.00,,,0.02,Wunderground v.1.15,2013-03-01 17:45:00,
2013-03-01 12:55:00,30.7,26.7,29.87,North,9,6.0,10.0,85,0.00,,,0.03,Wunderground v.1.15,2013-03-01 17:55:00,
2013-03-01 13:05:00,30.4,26.4,29.87,WNW,301,7.0,7.0,85,0.00,,,0.03,Wunderground v.1.15,2013-03-01 18:05:00,
2013-03-01 13:10:00,30.4,26.4,29.87,WNW,290,6.0,6.0,85,0.00,,,0.03,Wunderground v.1.15,2013-03-01 18:10:00,
2013-03-01 13:15:00,30.3,26.3,29.87,NW,306,5.0,6.0,85,0.00,,,0.03,Wunderground v.1.15,2013-03-01 18:15:00,
2013-03-01 13:20:00,30.3,26.3,29.87,NNW,331,6.0,6.0,85,0.00,,,0.03,Wunderground v.1.15,2013-03-01 18:20:00,
2013-03-01 13:30:00,30.2,26.2,29.87,WNW,287,5.0,5.0,85,0.00,,,0.03,Wunderground v.1.15,2013-03-01 18:30:00,
2013-03-01 13:40:00,29.9,25.7,29.88,WNW,288,6.0,6.0,84,0.00,,,0.03,Wunderground v.1.15,2013-03-01 18:40:00,
2013-03-01 13:45:00,29.8,25.6,29.88,NW,317,6.0,6.0,84,0.00,,,0.03,Wunderground v.1.15,2013-03-01 18:45:00,
2013-03-01 13:55:00,29.8,25.6,29.88,WNW,294,5.0,7.0,84,0.00,,,0.03,Wunderground v.1.15,2013-03-01 18:55:00,
2013-03-01 14:05:00,29.7,25.5,29.88,West,273,6.0,9.0,84,0.00,,,0.03,Wunderground v.1.15,2013-03-01 19:05:00,
2013-03-01 14:10:00,29.7,25.5,29.88,NW,307,6.0,7.0,84,0.00,,,0.03,Wunderground v.1.15,2013-03-01 19:10:00,
2013-03-01 14:25:00,29.4,25.2,29.89,West,281,7.0,7.0,84,0.00,,,0.03,Wunderground v.1.15,2013-03-01 19:25:00,
2013-03-01 14:35:00,29.2,24.7,29.89,West,271,6.0,6.0,83,0.00,,,0.03,Wunderground v.1.15,2013-03-01 19:35:00,
2013-03-01 14:45:00,29.4,24.9,29.89,WNW,288,4.0,5.0,83,0.00,,,0.03,Wunderground v.1.15,2013-03-01 19:45:00,
2013-03-01 14:55:00,29.2,24.1,29.89,WNW,290,6.0,11.0,81,0.00,,,0.03,Wunderground v.1.15,2013-03-01 19:55:00,
2013-03-01 15:05:00,28.8,24.0,29.89,WNW,288,7.0,7.0,82,0.00,,,0.04,Wunderground v.1.15,2013-03-01 20:05:00,
2013-03-01 15:10:00,28.7,23.9,29.89,WNW,286,7.0,11.0,82,0.00,,,0.04,Wunderground v.1.15,2013-03-01 20:10:00,
2013-03-01 15:20:00,28.5,23.7,29.89,NW,323,6.0,6.0,82,0.00,,,0.04,Wunderground v.1.15,2013-03-01 20:20:00,
2013-03-01 15:30:00,28.4,23.6,29.89,West,279,6.0,6.0,82,0.00,,,0.04,Wunderground v.1.15,2013-03-01 20:30:00,
2013-03-01 15:40:00,28.2,23.7,29.89,NW,304,6.0,6.0,83,0.00,,,0.04,Wunderground v.1.15,2013-03-01 20:40:00,
2013-03-01 15:50:00,28.1,23.6,29.89,West,275,6.0,6.0,83,0.00,,,0.04,Wunderground v.1.15,2013-03-01 20:50:00,
2013-03-01 15:55:00,28.0,23.2,29.89,WNW,297,6.0,12.0,82,0.00,,,0.04,Wunderground v.1.15,2013-03-01 20:55:00,
2013-03-01 16:05:00,27.8,23.0,29.89,WNW,288,7.0,10.0,82,0.00,,,0.04,Wunderground v.1.15,2013-03-01 21:05:00,
2013-03-01 16:15:00,27.6,22.8,29.89,WNW,284,6.0,6.0,82,0.00,,,0.04,Wunderground v.1.15,2013-03-01 21:15:00,
2013-03-01 16:20:00,27.6,22.8,29.89,WNW,287,5.0,5.0,82,0.00,,,0.04,Wunderground v.1.15,2013-03-01 21:20:00,
2013-03-01 16:30:00,27.6,22.8,29.90,West,279,4.0,4.0,82,0.00,,,0.04,Wunderground v.1.15,2013-03-01 21:30:00,
2013-03-01 16:40:00,27.3,22.5,29.90,West,269,6.0,6.0,82,0.00,,,0.04,Wunderground v.1.15,2013-03-01 21:40:00,
2013-03-01 16:50:00,27.1,22.6,29.90,WNW,286,5.0,5.0,83,0.00,,,0.04,Wunderground v.1.15,2013-03-01 21:50:00,
2013-03-01 16:55:00,27.0,22.8,29.90,West,280,4.0,5.0,84,0.00,,,0.04,Wunderground v.1.15,2013-03-01 21:55:00,
2013-03-01 17:05:00,26.9,22.7,29.90,West,273,5.0,6.0,84,0.00,,,0.04,Wunderground v.1.15,2013-03-01 22:05:00,
2013-03-01 17:15:00,26.7,22.8,29.90,West,281,5.0,5.0,85,0.00,,,0.04,Wunderground v.1.15,2013-03-01 22:15:00,
2013-03-01 17:25:00,26.6,22.7,29.90,West,281,4.0,5.0,85,0.00,,,0.04,Wunderground v.1.15,2013-03-01 22:25:00,
2013-03-01 17:30:00,26.6,22.4,29.91,WNW,291,4.0,4.0,84,0.00,,,0.04,Wunderground v.1.15,2013-03-01 22:30:00,
2013-03-01 17:40:00,26.5,22.3,29.91,West,280,5.0,5.0,84,0.00,,,0.04,Wunderground v.1.15,2013-03-01 22:40:00,
2013-03-01 17:45:00,26.4,21.9,29.91,WNW,286,5.0,6.0,83,0.00,,,0.04,Wunderground v.1.15,2013-03-01 22:45:00,
2013-03-01 17:55:00,26.4,21.9,29.91,West,277,4.0,5.0,83,0.00,,,0.04,Wunderground v.1.15,2013-03-01 22:55:00,
2013-03-01 18:05:00,26.3,21.8,29.91,West,281,4.0,6.0,83,0.00,,,0.04,Wunderground v.1.15,2013-03-01 23:05:00,
2013-03-01 18:15:00,26.3,21.8,29.91,West,280,4.0,5.0,83,0.00,,,0.04,Wunderground v.1.15,2013-03-01 23:15:00,
2013-03-01 18:25:00,26.2,21.7,29.91,West,272,4.0,8.0,83,0.00,,,0.04,Wunderground v.1.15,2013-03-01 23:25:00,
2013-03-01 18:35:00,26.0,21.5,29.91,West,268,4.0,4.0,83,0.00,,,0.04,Wunderground v.1.15,2013-03-01 23:35:00,
2013-03-01 18:40:00,25.9,21.4,29.91,West,273,3.0,3.0,83,0.00,,,0.04,Wunderground v.1.15,2013-03-01 23:40:00,
2013-03-01 18:50:00,25.6,21.2,29.91,West,272,2.0,3.0,83,0.00,,,0.04,Wunderground v.1.15,2013-03-01 23:50:00,
2013-03-01 19:00:00,25.4,21.0,29.92,West,264,2.0,2.0,83,0.00,,,0.04,Wunderground v.1.15,2013-03-02 00:00:00,
2013-03-01 19:05:00,25.4,21.2,29.92,West,266,2.0,2.0,84,0.00,,,0.04,Wunderground v.1.15,2013-03-02 00:05:00,
2013-03-01 19:15:00,25.6,21.4,29.92,West,261,3.0,3.0,84,0.00,,,0.04,Wunderground v.1.15,2013-03-02 00:15:00,
2013-03-01 19:25:00,25.6,21.4,29.92,WSW,258,2.0,5.0,84,0.00,,,0.04,Wunderground v.1.15,2013-03-02 00:25:00,
2013-03-01 19:35:00,25.7,21.5,29.92,WSW,256,3.0,5.0,84,0.00,,,0.04,Wunderground v.1.15,2013-03-02 00:35:00,
2013-03-01 19:45:00,25.8,21.6,29.92,WSW,244,3.0,4.0,84,0.00,,,0.04,Wunderground v.1.15,2013-03-02 00:45:00,
2013-03-01 19:55:00,25.8,21.6,29.92,WSW,242,3.0,4.0,84,0.00,,,0.04,Wunderground v.1.15,2013-03-02 00:55:00,
2013-03-01 20:05:00,25.9,21.7,29.92,WSW,241,3.0,3.0,84,0.00,,,0.04,Wunderground v.1.15,2013-03-02 01:05:00,
2013-03-01 20:15:00,25.9,22.0,29.92,WSW,244,3.0,3.0,85,0.00,,,0.04,Wunderground v.1.15,2013-03-02 01:15:00,
2013-03-01 20:20:00,25.9,22.0,29.92,WSW,244,3.0,4.0,85,0.00,,,0.04,Wunderground v.1.15,2013-03-02 01:20:00,
2013-03-01 20:30:00,25.9,22.0,29.91,SW,232,4.0,4.0,85,0.00,,,0.04,Wunderground v.1.15,2013-03-02 01:30:00,
2013-03-01 20:40:00,25.9,22.0,29.91,WSW,251,3.0,3.0,85,0.00,,,0.04,Wunderground v.1.15,2013-03-02 01:40:00,
2013-03-01 20:50:00,26.0,22.1,29.92,WSW,249,3.0,3.0,85,0.00,,,0.04,Wunderground v.1.15,2013-03-02 01:50:00,
2013-03-01 21:00:00,26.1,22.2,29.91,WSW,256,4.0,4.0,85,0.00,,,0.04,Wunderground v.1.15,2013-03-02 02:00:00,
2013-03-01 21:10:00,26.2,22.3,29.91,WSW,254,3.0,5.0,85,0.00,,,0.04,Wunderground v.1.15,2013-03-02 02:10:00,
2013-03-01 21:20:00,26.2,22.6,29.92,West,262,3.0,7.0,86,0.00,,,0.04,Wunderground v.1.15,2013-03-02 02:20:00,
2013-03-01 21:30:00,26.2,22.6,29.91,WSW,245,4.0,4.0,86,0.00,,,0.04,Wunderground v.1.15,2013-03-02 02:30:00,
2013-03-01 21:35:00,26.3,22.7,29.92,WSW,257,4.0,4.0,86,0.00,,,0.04,Wunderground v.1.15,2013-03-02 02:35:00,
2013-03-01 21:45:00,26.4,22.8,29.92,West,275,3.0,8.0,86,0.00,,,0.04,Wunderground v.1.15,2013-03-02 02:45:00,
2013-03-01 21:50:00,26.5,22.9,29.92,West,269,4.0,4.0,86,0.00,,,0.04,Wunderground v.1.15,2013-03-02 02:50:00,
2013-03-01 22:00:00,26.7,23.1,29.92,West,266,4.0,4.0,86,0.00,,,0.04,Wunderground v.1.15,2013-03-02 03:00:00,
2013-03-01 22:05:00,26.8,23.2,29.92,West,275,4.0,4.0,86,0.00,,,0.04,Wunderground v.1.15,2013-03-02 03:05:00,
2013-03-01 22:10:00,26.8,23.2,29.92,West,279,4.0,4.0,86,0.00,,,0.04,Wunderground v.1.15,2013-03-02 03:10:00,
2013-03-01 22:20:00,26.9,23.5,29.92,West,280,4.0,4.0,87,0.00,,,0.04,Wunderground v.1.15,2013-03-02 03:20:00,
2013-03-01 22:25:00,27.0,23.6,29.92,West,279,5.0,5.0,87,0.00,,,0.04,Wunderground v.1.15,2013-03-02 03:25:00,
2013-03-01 22:35:00,27.0,23.9,29.92,West,281,5.0,5.0,88,0.00,,,0.04,Wunderground v.1.15,2013-03-02 03:35:00,
2013-03-01 22:45:00,27.0,24.2,29.92,WNW,284,5.0,5.0,89,0.00,,,0.04,Wunderground v.1.15,2013-03-02 03:45:00,
2013-03-01 22:55:00,27.0,24.2,29.92,WNW,286,3.0,4.0,89,0.00,,,0.04,Wunderground v.1.15,2013-03-02 03:55:00,
2013-03-01 23:05:00,26.9,24.4,29.92,WNW,285,4.0,6.0,90,0.00,,,0.04,Wunderground v.1.15,2013-03-02 04:05:00,
2013-03-01 23:10:00,27.0,24.5,29.92,WNW,284,4.0,4.0,90,0.00,,,0.04,Wunderground v.1.15,2013-03-02 04:10:00,
2013-03-01 23:20:00,27.0,24.7,29.92,WNW,286,2.0,2.0,91,0.00,,,0.04,Wunderground v.1.15,2013-03-02 04:20:00,
2013-03-01 23:30:00,26.9,24.6,29.92,WNW,286,0.0,0.0,91,0.00,,,0.04,Wunderground v.1.15,2013-03-02 04:30:00,
2013-03-01 23:40:00,26.9,24.6,29.92,WNW,286,0.0,0.0,91,0.00,,,0.04,Wunderground v.1.15,2013-03-02 04:40:00,
2013-03-01 23:50:00,27.0,25.0,29.92,WNW,286,0.0,0.0,92,0.00,,,0.04,Wunderground v.1.15,2013-03-02 04:50:00,
2013-03-01 23:55:00,26.9,24.9,29.92,WNW,286,0.0,3.0,92,0.00,,,0.04,Wunderground v.1.15,2013-03-02 04:55:00,